• Join FlightAware (Why Join?)
  • Login
  • US Flag 
Gobble Gobble! 
02:31PM EST


 

Airport Tracker/Info


-or-


 

Live Flight TrackerFlight Track Log ✈ N589H ✈ 17-Apr-2014 ✈ KCRG - KSUA

Flight Track Log - Related Links

Times and Time Zones

All times are in EDT time to prevent confusion due to time zone crossing. See the N589H flight status page for this flight to view local times or setup timezone preferences in your user account.

Time Position Orientation Groundspeed Altitude Reporting Facility
EDT Latitude Longitude Course Direction KTS MPH feet Rate Location/Type
11:25AM 30.3364 -81.5086 88° East 97 112 400  Level Jacksonville Center
11:26AM 30.3378 -81.4606 88° East 187 215 2,000 1,860 Climbing Jacksonville Center
11:26AM 30.3103 -81.4225 130° Southeast 189 217 3,900 2,100 Climbing Jacksonville Center
11:27AM 30.2956 -81.4058 136° Southeast 187 215 4,800 2,280 Climbing Jacksonville Center
11:28AM 30.2572 -81.3631 136° Southeast 192 221 7,100 2,100 Climbing Jacksonville Center
11:29AM 30.2192 -81.3133 132° Southeast 192 221 9,000 1,740 Climbing Jacksonville Center
11:30AM 30.1542 -81.3000 170° South 204 235 10,600 1,560 Climbing Jacksonville Center
11:31AM 30.0872 -81.2842 168° South 229 264 12,200 1,560 Climbing Jacksonville Center
11:32AM 30.0242 -81.2517 156° South 247 284 13,800 1,560 Climbing Jacksonville Center
11:33AM 29.9611 -81.2097 150° Southeast 254 292 15,400 1,560 Climbing Jacksonville Center
11:34AM 29.8958 -81.1700 152° Southeast 260 299 17,000 1,380 Climbing Jacksonville Center
11:35AM 29.8306 -81.1281 151° Southeast 265 305 18,200 1,380 Climbing Jacksonville Center
11:36AM 29.7653 -81.0886 152° Southeast 265 305 19,800 900 Climbing Jacksonville Center
11:37AM 29.6875 -81.0494 156° South 270 311 20,000 60 Climbing Jacksonville Center
11:38AM 29.6033 -81.0175 162° South 301 346 20,000  Level Jacksonville Center
11:39AM 29.5153 -80.9833 161° South 323 372 20,000  Level Jacksonville Center
11:40AM 29.4208 -80.9447 160° South 346 398 20,000  Level Jacksonville Center
11:41AM 29.3283 -80.9083 161° South 351 404 20,000  Level Jacksonville Center
11:43AM 29.1569 -80.8486 163° South 339 390 20,000  Level Miami Center
11:44AM 29.0661 -80.8119 161° South 339 390 20,000  Level Miami Center
11:45AM 28.9711 -80.7753 161° South 344 396 20,000  Level Miami Center
11:46AM 28.8719 -80.7386 162° South 344 396 20,000  Level Miami Center
11:47AM 28.7814 -80.7025 161° South 344 396 20,000 -60 Level Miami Center
11:48AM 28.6986 -80.6689 160° South 344 396 19,900 -960 Descending Miami Center
11:49AM 28.6078 -80.6350 162° South 344 396 18,100 -1,440 Descending Miami Center
11:50AM 28.5169 -80.6036 163° South 344 396 17,100 -600 Descending Miami Center
11:51AM 28.4322 -80.5700 161° South 338 389 16,900 -1,020 Descending Miami Center
11:52AM 28.3372 -80.5339 162° South 332 382 15,100 -960 Descending Miami Center
11:53AM 28.2606 -80.5056 162° South 332 382 15,000  Descending Miami Center
11:54AM 28.1758 -80.4722 161° South 326 375 15,100 -240 Climbing Miami Center
11:55AM 28.0911 -80.4411 162° South 321 369 14,600 -1,320 Descending Miami Center
11:56AM 28.0061 -80.4125 163° South 321 369 12,500 -1,440 Descending Miami Center
11:57AM 27.9256 -80.3819 161° South 321 369 11,800 -1,080 Descending Miami Center
11:58AM 27.8511 -80.3536 161° South 303 349 10,400 -1,200 Descending Miami Center
11:59AM 27.7747 -80.3231 161° South 295 339 9,400 -1,380 Descending Miami Center
12:00PM 27.6875 -80.2947 164° South 295 339 7,700 -1,560 Descending Miami Center
12:01PM 27.6131 -80.2667 162° South 295 339 6,300 -1,200 Descending Miami Center
12:02PM 27.5367 -80.2386 162° South 295 339 5,400 -900 Descending Miami Center
12:03PM 27.4703 -80.2133 161° South 283 326 4,500 -660 Descending Miami Center
12:04PM 27.4000 -80.1856 161° South 283 326 4,100 -420 Descending Miami Center
12:05PM 27.3167 -80.1739 173° South 278 320 3,700 -1,020 Descending Miami Center
12:06PM 27.2511 -80.2094 206° Southwest 260 299 2,100 -1,200 Descending Miami Center
12:07PM 27.2144 -80.2572 229° Southwest 214 246 1,400 -840 Descending Miami Center
12:08PM 27.1894 -80.2542 174° South 164 189 500 -900 Descending Miami Center